sensor_id;sensor_type;location;lat;lon;timestamp;P1;durP1;ratioP1;P2;durP2;ratioP2
29006;SDS011;16104;48.642;9.008;2023-07-31T01:01:38;4.50;;;1.48;;
29006;SDS011;16104;48.642;9.008;2023-07-31T01:11:34;2.08;;;1.60;;
29006;SDS011;16104;48.642;9.008;2023-07-31T02:02:22;2.05;;;1.45;;
29006;SDS011;16104;48.642;9.008;2023-07-31T02:07:20;2.80;;;1.55;;
29006;SDS011;16104;48.642;9.008;2023-07-31T02:12:16;4.15;;;1.70;;
29006;SDS011;16104;48.642;9.008;2023-07-31T03:03:33;2.50;;;1.35;;
29006;SDS011;16104;48.642;9.008;2023-07-31T03:08:28;3.65;;;1.80;;
29006;SDS011;16104;48.642;9.008;2023-07-31T03:13:24;2.78;;;1.60;;
29006;SDS011;16104;48.642;9.008;2023-07-31T03:18:19;5.40;;;1.75;;
29006;SDS011;16104;48.642;9.008;2023-07-31T03:23:15;3.72;;;1.70;;
29006;SDS011;16104;48.642;9.008;2023-07-31T03:28:10;5.43;;;1.80;;
29006;SDS011;16104;48.642;9.008;2023-07-31T03:33:06;4.32;;;1.50;;
29006;SDS011;16104;48.642;9.008;2023-07-31T03:38:01;3.72;;;1.67;;
29006;SDS011;16104;48.642;9.008;2023-07-31T03:42:57;3.63;;;1.50;;
29006;SDS011;16104;48.642;9.008;2023-07-31T03:47:52;4.82;;;1.50;;
29006;SDS011;16104;48.642;9.008;2023-07-31T03:52:49;9.45;;;1.67;;
29006;SDS011;16104;48.642;9.008;2023-07-31T03:57:45;5.32;;;1.70;;
29006;SDS011;16104;48.642;9.008;2023-07-31T04:02:40;4.75;;;1.88;;
29006;SDS011;16104;48.642;9.008;2023-07-31T04:07:36;2.35;;;1.50;;
29006;SDS011;16104;48.642;9.008;2023-07-31T04:12:32;4.18;;;1.45;;
29006;SDS011;16104;48.642;9.008;2023-07-31T04:17:27;5.32;;;1.85;;
29006;SDS011;16104;48.642;9.008;2023-07-31T04:22:23;2.80;;;1.40;;
29006;SDS011;16104;48.642;9.008;2023-07-31T04:27:18;5.68;;;1.70;;
29006;SDS011;16104;48.642;9.008;2023-07-31T04:32:14;3.88;;;2.20;;
29006;SDS011;16104;48.642;9.008;2023-07-31T04:37:11;3.65;;;1.55;;
29006;SDS011;16104;48.642;9.008;2023-07-31T04:42:07;4.60;;;1.73;;
29006;SDS011;16104;48.642;9.008;2023-07-31T04:47:02;3.35;;;1.80;;
29006;SDS011;16104;48.642;9.008;2023-07-31T04:51:58;5.65;;;1.40;;
29006;SDS011;16104;48.642;9.008;2023-07-31T04:56:54;4.15;;;1.70;;
29006;SDS011;16104;48.642;9.008;2023-07-31T05:01:49;3.92;;;1.40;;
29006;SDS011;16104;48.642;9.008;2023-07-31T05:06:45;3.20;;;1.70;;
29006;SDS011;16104;48.642;9.008;2023-07-31T05:11:40;3.22;;;1.50;;
29006;SDS011;16104;48.642;9.008;2023-07-31T05:16:37;4.10;;;1.58;;
29006;SDS011;16104;48.642;9.008;2023-07-31T05:21:33;3.13;;;1.65;;
29006;SDS011;16104;48.642;9.008;2023-07-31T05:26:28;3.25;;;1.45;;
29006;SDS011;16104;48.642;9.008;2023-07-31T05:31:24;4.93;;;1.63;;
29006;SDS011;16104;48.642;9.008;2023-07-31T05:36:19;3.55;;;1.70;;
29006;SDS011;16104;48.642;9.008;2023-07-31T05:41:15;2.60;;;1.63;;
29006;SDS011;16104;48.642;9.008;2023-07-31T05:46:11;2.42;;;1.83;;
29006;SDS011;16104;48.642;9.008;2023-07-31T05:51:07;4.93;;;1.70;;
29006;SDS011;16104;48.642;9.008;2023-07-31T05:56:02;4.07;;;1.52;;
29006;SDS011;16104;48.642;9.008;2023-07-31T06:00:58;4.57;;;1.80;;
29006;SDS011;16104;48.642;9.008;2023-07-31T06:05:53;2.25;;;1.58;;
29006;SDS011;16104;48.642;9.008;2023-07-31T06:10:49;3.17;;;1.55;;
29006;SDS011;16104;48.642;9.008;2023-07-31T06:15:44;4.50;;;1.58;;
29006;SDS011;16104;48.642;9.008;2023-07-31T06:20:40;3.40;;;1.77;;
29006;SDS011;16104;48.642;9.008;2023-07-31T06:25:36;6.22;;;1.80;;
29006;SDS011;16104;48.642;9.008;2023-07-31T06:30:31;3.50;;;1.60;;
29006;SDS011;16104;48.642;9.008;2023-07-31T06:35:27;3.75;;;1.88;;
29006;SDS011;16104;48.642;9.008;2023-07-31T06:40:22;3.83;;;1.90;;
29006;SDS011;16104;48.642;9.008;2023-07-31T06:45:18;4.18;;;1.67;;
29006;SDS011;16104;48.642;9.008;2023-07-31T06:50:13;4.15;;;1.85;;
29006;SDS011;16104;48.642;9.008;2023-07-31T06:55:19;5.53;;;1.63;;
29006;SDS011;16104;48.642;9.008;2023-07-31T07:00:17;4.38;;;1.80;;
29006;SDS011;16104;48.642;9.008;2023-07-31T07:05:14;4.63;;;1.60;;
29006;SDS011;16104;48.642;9.008;2023-07-31T07:10:11;3.58;;;1.70;;
29006;SDS011;16104;48.642;9.008;2023-07-31T07:15:07;3.67;;;1.70;;
29006;SDS011;16104;48.642;9.008;2023-07-31T07:20:03;5.05;;;1.50;;
29006;SDS011;16104;48.642;9.008;2023-07-31T07:24:59;2.63;;;1.58;;
29006;SDS011;16104;48.642;9.008;2023-07-31T07:29:55;5.95;;;1.83;;
29006;SDS011;16104;48.642;9.008;2023-07-31T07:34:51;2.85;;;1.50;;
29006;SDS011;16104;48.642;9.008;2023-07-31T07:39:46;5.25;;;1.60;;
29006;SDS011;16104;48.642;9.008;2023-07-31T07:44:42;3.70;;;1.77;;
29006;SDS011;16104;48.642;9.008;2023-07-31T07:49:37;2.95;;;1.67;;
29006;SDS011;16104;48.642;9.008;2023-07-31T07:54:32;6.00;;;1.85;;
29006;SDS011;16104;48.642;9.008;2023-07-31T07:59:28;5.03;;;1.90;;
29006;SDS011;16104;48.642;9.008;2023-07-31T08:04:23;6.57;;;2.20;;
29006;SDS011;16104;48.642;9.008;2023-07-31T08:09:19;4.05;;;2.00;;
29006;SDS011;16104;48.642;9.008;2023-07-31T08:14:14;3.85;;;1.85;;
29006;SDS011;16104;48.642;9.008;2023-07-31T08:19:10;5.35;;;1.73;;
29006;SDS011;16104;48.642;9.008;2023-07-31T08:24:05;8.80;;;2.08;;
29006;SDS011;16104;48.642;9.008;2023-07-31T08:29:02;5.38;;;1.73;;
29006;SDS011;16104;48.642;9.008;2023-07-31T08:33:58;5.00;;;1.92;;
29006;SDS011;16104;48.642;9.008;2023-07-31T08:38:53;3.97;;;1.80;;
29006;SDS011;16104;48.642;9.008;2023-07-31T08:43:49;4.00;;;2.10;;
29006;SDS011;16104;48.642;9.008;2023-07-31T08:48:46;4.60;;;1.92;;
29006;SDS011;16104;48.642;9.008;2023-07-31T08:53:42;5.45;;;2.20;;
29006;SDS011;16104;48.642;9.008;2023-07-31T08:58:38;4.88;;;1.92;;
29006;SDS011;16104;48.642;9.008;2023-07-31T09:03:34;4.28;;;2.13;;
29006;SDS011;16104;48.642;9.008;2023-07-31T09:08:31;2.60;;;1.65;;
29006;SDS011;16104;48.642;9.008;2023-07-31T09:13:28;6.88;;;2.67;;
29006;SDS011;16104;48.642;9.008;2023-07-31T09:18:24;5.63;;;1.83;;
29006;SDS011;16104;48.642;9.008;2023-07-31T09:23:20;3.30;;;2.00;;
29006;SDS011;16104;48.642;9.008;2023-07-31T09:28:16;5.88;;;2.42;;
29006;SDS011;16104;48.642;9.008;2023-07-31T09:33:12;5.38;;;2.40;;
29006;SDS011;16104;48.642;9.008;2023-07-31T09:38:09;6.78;;;2.05;;
29006;SDS011;16104;48.642;9.008;2023-07-31T09:43:08;6.85;;;2.50;;
29006;SDS011;16104;48.642;9.008;2023-07-31T09:48:07;3.90;;;2.42;;
29006;SDS011;16104;48.642;9.008;2023-07-31T09:53:04;5.03;;;2.20;;
29006;SDS011;16104;48.642;9.008;2023-07-31T09:58:03;7.78;;;2.40;;
29006;SDS011;16104;48.642;9.008;2023-07-31T10:03:01;5.47;;;2.10;;
29006;SDS011;16104;48.642;9.008;2023-07-31T10:12:56;3.03;;;1.90;;
29006;SDS011;16104;48.642;9.008;2023-07-31T10:17:52;4.25;;;2.25;;
29006;SDS011;16104;48.642;9.008;2023-07-31T10:22:49;8.27;;;2.30;;
29006;SDS011;16104;48.642;9.008;2023-07-31T10:27:46;4.50;;;1.95;;
29006;SDS011;16104;48.642;9.008;2023-07-31T10:32:43;7.03;;;2.30;;
29006;SDS011;16104;48.642;9.008;2023-07-31T10:37:41;4.10;;;2.20;;
29006;SDS011;16104;48.642;9.008;2023-07-31T10:42:38;7.93;;;2.17;;
29006;SDS011;16104;48.642;9.008;2023-07-31T10:47:45;3.78;;;2.40;;
29006;SDS011;16104;48.642;9.008;2023-07-31T10:52:43;4.25;;;2.10;;
29006;SDS011;16104;48.642;9.008;2023-07-31T10:57:44;6.38;;;2.45;;
29006;SDS011;16104;48.642;9.008;2023-07-31T11:02:42;4.53;;;2.17;;
29006;SDS011;16104;48.642;9.008;2023-07-31T11:07:52;2.97;;;1.90;;
29006;SDS011;16104;48.642;9.008;2023-07-31T11:12:51;4.53;;;2.38;;
29006;SDS011;16104;48.642;9.008;2023-07-31T11:17:46;4.05;;;2.00;;
29006;SDS011;16104;48.642;9.008;2023-07-31T11:22:42;4.72;;;2.25;;
29006;SDS011;16104;48.642;9.008;2023-07-31T11:27:39;4.72;;;2.40;;
29006;SDS011;16104;48.642;9.008;2023-07-31T11:32:36;4.72;;;2.10;;
29006;SDS011;16104;48.642;9.008;2023-07-31T11:37:41;4.57;;;2.30;;
29006;SDS011;16104;48.642;9.008;2023-07-31T11:42:38;6.10;;;2.17;;
29006;SDS011;16104;48.642;9.008;2023-07-31T11:47:33;3.80;;;2.03;;
29006;SDS011;16104;48.642;9.008;2023-07-31T11:52:30;6.20;;;2.42;;
29006;SDS011;16104;48.642;9.008;2023-07-31T11:57:30;7.80;;;2.35;;
29006;SDS011;16104;48.642;9.008;2023-07-31T12:02:26;5.68;;;2.17;;
29006;SDS011;16104;48.642;9.008;2023-07-31T12:07:21;3.40;;;2.00;;
29006;SDS011;16104;48.642;9.008;2023-07-31T12:12:22;11.20;;;2.30;;
29006;SDS011;16104;48.642;9.008;2023-07-31T12:17:20;7.28;;;2.47;;
29006;SDS011;16104;48.642;9.008;2023-07-31T12:22:15;6.43;;;2.42;;
29006;SDS011;16104;48.642;9.008;2023-07-31T12:27:11;7.35;;;2.08;;
29006;SDS011;16104;48.642;9.008;2023-07-31T12:32:21;3.90;;;2.33;;
29006;SDS011;16104;48.642;9.008;2023-07-31T12:37:19;5.25;;;2.10;;
29006;SDS011;16104;48.642;9.008;2023-07-31T12:42:17;5.18;;;2.30;;
29006;SDS011;16104;48.642;9.008;2023-07-31T12:47:13;4.03;;;2.10;;
29006;SDS011;16104;48.642;9.008;2023-07-31T12:52:10;4.72;;;2.30;;
29006;SDS011;16104;48.642;9.008;2023-07-31T12:57:05;7.25;;;2.67;;
29006;SDS011;16104;48.642;9.008;2023-07-31T13:02:01;3.40;;;2.00;;
29006;SDS011;16104;48.642;9.008;2023-07-31T13:06:56;4.28;;;2.22;;
29006;SDS011;16104;48.642;9.008;2023-07-31T13:11:53;5.30;;;2.17;;
29006;SDS011;16104;48.642;9.008;2023-07-31T13:16:48;6.68;;;2.40;;
29006;SDS011;16104;48.642;9.008;2023-07-31T13:21:44;4.55;;;2.28;;
29006;SDS011;16104;48.642;9.008;2023-07-31T13:26:39;4.15;;;2.20;;
29006;SDS011;16104;48.642;9.008;2023-07-31T13:31:35;5.75;;;2.50;;
29006;SDS011;16104;48.642;9.008;2023-07-31T13:36:30;3.80;;;2.13;;
29006;SDS011;16104;48.642;9.008;2023-07-31T13:41:26;4.28;;;2.20;;
29006;SDS011;16104;48.642;9.008;2023-07-31T13:46:21;4.75;;;2.10;;
29006;SDS011;16104;48.642;9.008;2023-07-31T13:51:17;4.70;;;2.53;;
29006;SDS011;16104;48.642;9.008;2023-07-31T13:56:13;3.90;;;2.33;;
29006;SDS011;16104;48.642;9.008;2023-07-31T14:01:09;6.45;;;2.50;;
29006;SDS011;16104;48.642;9.008;2023-07-31T14:06:04;4.97;;;2.30;;
29006;SDS011;16104;48.642;9.008;2023-07-31T14:11:00;5.72;;;2.38;;
29006;SDS011;16104;48.642;9.008;2023-07-31T14:15:55;3.65;;;2.20;;
29006;SDS011;16104;48.642;9.008;2023-07-31T14:20:51;4.57;;;2.13;;
29006;SDS011;16104;48.642;9.008;2023-07-31T14:25:47;2.47;;;2.00;;
29006;SDS011;16104;48.642;9.008;2023-07-31T14:30:42;3.33;;;2.42;;
29006;SDS011;16104;48.642;9.008;2023-07-31T14:35:38;5.00;;;2.20;;
29006;SDS011;16104;48.642;9.008;2023-07-31T14:40:33;4.55;;;2.05;;
29006;SDS011;16104;48.642;9.008;2023-07-31T14:45:29;3.67;;;2.17;;
29006;SDS011;16104;48.642;9.008;2023-07-31T14:50:25;4.05;;;2.03;;
29006;SDS011;16104;48.642;9.008;2023-07-31T14:55:20;4.07;;;2.33;;
29006;SDS011;16104;48.642;9.008;2023-07-31T15:00:16;5.22;;;2.40;;
29006;SDS011;16104;48.642;9.008;2023-07-31T15:05:12;7.75;;;2.60;;
29006;SDS011;16104;48.642;9.008;2023-07-31T15:10:07;5.80;;;2.78;;
29006;SDS011;16104;48.642;9.008;2023-07-31T15:15:03;3.67;;;2.22;;
29006;SDS011;16104;48.642;9.008;2023-07-31T15:20:00;2.65;;;2.00;;
29006;SDS011;16104;48.642;9.008;2023-07-31T15:24:55;6.90;;;2.47;;
29006;SDS011;16104;48.642;9.008;2023-07-31T15:29:51;3.58;;;2.10;;
29006;SDS011;16104;48.642;9.008;2023-07-31T15:34:46;8.60;;;2.33;;
29006;SDS011;16104;48.642;9.008;2023-07-31T15:39:42;4.88;;;2.33;;
29006;SDS011;16104;48.642;9.008;2023-07-31T15:44:37;3.83;;;2.60;;
29006;SDS011;16104;48.642;9.008;2023-07-31T15:49:34;4.15;;;2.63;;
29006;SDS011;16104;48.642;9.008;2023-07-31T15:54:29;6.07;;;2.30;;
29006;SDS011;16104;48.642;9.008;2023-07-31T15:59:25;3.92;;;2.50;;
29006;SDS011;16104;48.642;9.008;2023-07-31T16:04:20;3.17;;;2.40;;
29006;SDS011;16104;48.642;9.008;2023-07-31T16:09:16;3.88;;;2.50;;
29006;SDS011;16104;48.642;9.008;2023-07-31T16:14:11;4.15;;;2.90;;
29006;SDS011;16104;48.642;9.008;2023-07-31T16:19:07;5.03;;;2.97;;
29006;SDS011;16104;48.642;9.008;2023-07-31T16:24:02;2.80;;;2.15;;
29006;SDS011;16104;48.642;9.008;2023-07-31T16:28:58;6.80;;;3.33;;
29006;SDS011;16104;48.642;9.008;2023-07-31T16:33:53;4.20;;;2.72;;
29006;SDS011;16104;48.642;9.008;2023-07-31T16:38:49;4.68;;;2.50;;
29006;SDS011;16104;48.642;9.008;2023-07-31T16:43:46;3.83;;;2.30;;
29006;SDS011;16104;48.642;9.008;2023-07-31T16:48:41;2.80;;;2.10;;
29006;SDS011;16104;48.642;9.008;2023-07-31T16:53:38;4.40;;;2.35;;
29006;SDS011;16104;48.642;9.008;2023-07-31T16:58:34;6.47;;;2.60;;
29006;SDS011;16104;48.642;9.008;2023-07-31T17:03:30;2.92;;;2.17;;
29006;SDS011;16104;48.642;9.008;2023-07-31T17:08:25;5.43;;;1.95;;
29006;SDS011;16104;48.642;9.008;2023-07-31T17:13:21;5.10;;;2.53;;
29006;SDS011;16104;48.642;9.008;2023-07-31T17:18:16;3.67;;;2.35;;
29006;SDS011;16104;48.642;9.008;2023-07-31T17:23:12;2.78;;;2.30;;
29006;SDS011;16104;48.642;9.008;2023-07-31T17:28:07;6.32;;;2.40;;
29006;SDS011;16104;48.642;9.008;2023-07-31T17:33:03;9.10;;;3.50;;
29006;SDS011;16104;48.642;9.008;2023-07-31T17:37:58;7.00;;;3.35;;
29006;SDS011;16104;48.642;9.008;2023-07-31T17:42:54;5.15;;;2.75;;
29006;SDS011;16104;48.642;9.008;2023-07-31T17:47:49;4.07;;;2.13;;
29006;SDS011;16104;48.642;9.008;2023-07-31T17:52:46;4.95;;;2.63;;
29006;SDS011;16104;48.642;9.008;2023-07-31T17:57:41;9.45;;;2.88;;
29006;SDS011;16104;48.642;9.008;2023-07-31T18:02:37;13.00;;;3.03;;
29006;SDS011;16104;48.642;9.008;2023-07-31T18:07:33;6.70;;;2.70;;
29006;SDS011;16104;48.642;9.008;2023-07-31T18:12:28;5.90;;;2.50;;
29006;SDS011;16104;48.642;9.008;2023-07-31T18:17:24;6.53;;;2.70;;
29006;SDS011;16104;48.642;9.008;2023-07-31T18:22:20;5.78;;;2.80;;
29006;SDS011;16104;48.642;9.008;2023-07-31T18:27:16;6.75;;;2.92;;
29006;SDS011;16104;48.642;9.008;2023-07-31T18:32:13;7.47;;;2.78;;
29006;SDS011;16104;48.642;9.008;2023-07-31T18:37:08;5.97;;;3.05;;
29006;SDS011;16104;48.642;9.008;2023-07-31T18:42:04;3.90;;;2.60;;
29006;SDS011;16104;48.642;9.008;2023-07-31T18:47:03;6.45;;;2.58;;
29006;SDS011;16104;48.642;9.008;2023-07-31T18:51:58;3.87;;;2.20;;
29006;SDS011;16104;48.642;9.008;2023-07-31T18:56:54;3.10;;;2.20;;
29006;SDS011;16104;48.642;9.008;2023-07-31T19:01:49;3.53;;;2.30;;
29006;SDS011;16104;48.642;9.008;2023-07-31T19:06:45;5.18;;;2.28;;
29006;SDS011;16104;48.642;9.008;2023-07-31T19:11:40;5.25;;;2.60;;
29006;SDS011;16104;48.642;9.008;2023-07-31T19:16:37;4.65;;;2.47;;
29006;SDS011;16104;48.642;9.008;2023-07-31T19:21:33;6.40;;;2.67;;
29006;SDS011;16104;48.642;9.008;2023-07-31T19:26:28;7.90;;;2.67;;
29006;SDS011;16104;48.642;9.008;2023-07-31T19:31:24;4.05;;;2.15;;
29006;SDS011;16104;48.642;9.008;2023-07-31T19:36:19;5.03;;;2.40;;
29006;SDS011;16104;48.642;9.008;2023-07-31T19:41:15;6.35;;;2.60;;
29006;SDS011;16104;48.642;9.008;2023-07-31T19:46:10;4.47;;;2.58;;
29006;SDS011;16104;48.642;9.008;2023-07-31T19:51:06;5.40;;;2.53;;
29006;SDS011;16104;48.642;9.008;2023-07-31T19:56:01;6.05;;;2.40;;
29006;SDS011;16104;48.642;9.008;2023-07-31T20:00:59;6.07;;;2.67;;
29006;SDS011;16104;48.642;9.008;2023-07-31T20:05:54;5.10;;;2.55;;
29006;SDS011;16104;48.642;9.008;2023-07-31T20:10:50;3.45;;;2.45;;
29006;SDS011;16104;48.642;9.008;2023-07-31T20:15:46;8.50;;;2.80;;
29006;SDS011;16104;48.642;9.008;2023-07-31T20:20:41;4.32;;;2.42;;
29006;SDS011;16104;48.642;9.008;2023-07-31T20:25:37;8.40;;;2.55;;
29006;SDS011;16104;48.642;9.008;2023-07-31T20:30:33;4.45;;;2.38;;
29006;SDS011;16104;48.642;9.008;2023-07-31T20:35:29;4.28;;;2.67;;
29006;SDS011;16104;48.642;9.008;2023-07-31T20:40:25;5.60;;;2.47;;
29006;SDS011;16104;48.642;9.008;2023-07-31T20:45:20;4.25;;;2.65;;
29006;SDS011;16104;48.642;9.008;2023-07-31T20:50:16;4.10;;;2.35;;
29006;SDS011;16104;48.642;9.008;2023-07-31T20:55:11;4.63;;;2.75;;
29006;SDS011;16104;48.642;9.008;2023-07-31T21:00:07;6.18;;;2.70;;
29006;SDS011;16104;48.642;9.008;2023-07-31T21:05:03;5.55;;;2.45;;
29006;SDS011;16104;48.642;9.008;2023-07-31T21:09:59;3.42;;;2.30;;
29006;SDS011;16104;48.642;9.008;2023-07-31T21:14:54;5.60;;;2.80;;
29006;SDS011;16104;48.642;9.008;2023-07-31T21:19:50;10.43;;;2.42;;
29006;SDS011;16104;48.642;9.008;2023-07-31T21:24:45;4.90;;;3.10;;
29006;SDS011;16104;48.642;9.008;2023-07-31T21:29:41;4.95;;;2.83;;
29006;SDS011;16104;48.642;9.008;2023-07-31T21:34:36;4.88;;;2.97;;
29006;SDS011;16104;48.642;9.008;2023-07-31T21:39:32;5.68;;;3.30;;
29006;SDS011;16104;48.642;9.008;2023-07-31T21:44:27;4.50;;;2.78;;
29006;SDS011;16104;48.642;9.008;2023-07-31T21:49:23;6.40;;;2.88;;
29006;SDS011;16104;48.642;9.008;2023-07-31T21:54:18;3.95;;;2.33;;
29006;SDS011;16104;48.642;9.008;2023-07-31T21:59:14;7.82;;;2.70;;
29006;SDS011;16104;48.642;9.008;2023-07-31T22:04:09;5.93;;;2.90;;
29006;SDS011;16104;48.642;9.008;2023-07-31T22:09:05;3.53;;;2.30;;
29006;SDS011;16104;48.642;9.008;2023-07-31T22:14:00;3.50;;;2.28;;
29006;SDS011;16104;48.642;9.008;2023-07-31T22:18:56;4.68;;;2.80;;
29006;SDS011;16104;48.642;9.008;2023-07-31T22:23:51;5.18;;;2.75;;
29006;SDS011;16104;48.642;9.008;2023-07-31T22:28:47;5.72;;;2.65;;
29006;SDS011;16104;48.642;9.008;2023-07-31T22:33:42;5.57;;;2.70;;
29006;SDS011;16104;48.642;9.008;2023-07-31T22:38:38;4.40;;;2.42;;
29006;SDS011;16104;48.642;9.008;2023-07-31T22:43:34;4.45;;;2.60;;
29006;SDS011;16104;48.642;9.008;2023-07-31T22:48:29;5.10;;;3.13;;
29006;SDS011;16104;48.642;9.008;2023-07-31T22:53:25;6.85;;;2.90;;
29006;SDS011;16104;48.642;9.008;2023-07-31T22:58:20;6.32;;;2.78;;
29006;SDS011;16104;48.642;9.008;2023-07-31T23:03:16;6.90;;;3.13;;
29006;SDS011;16104;48.642;9.008;2023-07-31T23:08:11;4.32;;;2.80;;
29006;SDS011;16104;48.642;9.008;2023-07-31T23:13:07;5.97;;;3.15;;
29006;SDS011;16104;48.642;9.008;2023-07-31T23:18:02;4.43;;;2.88;;
29006;SDS011;16104;48.642;9.008;2023-07-31T23:22:58;6.50;;;3.22;;
29006;SDS011;16104;48.642;9.008;2023-07-31T23:27:53;4.60;;;3.13;;
29006;SDS011;16104;48.642;9.008;2023-07-31T23:32:49;4.07;;;2.75;;
29006;SDS011;16104;48.642;9.008;2023-07-31T23:37:44;4.38;;;2.92;;
29006;SDS011;16104;48.642;9.008;2023-07-31T23:42:40;6.45;;;3.03;;
29006;SDS011;16104;48.642;9.008;2023-07-31T23:47:35;8.57;;;2.97;;
29006;SDS011;16104;48.642;9.008;2023-07-31T23:52:32;5.00;;;3.20;;
29006;SDS011;16104;48.642;9.008;2023-07-31T23:57:27;6.13;;;3.15;;
